Time;durP1;ratioP1;P1;durP2;ratioP2;P2;SDS_P1;SDS_P2;PMS_P1;PMS_P2;Temp;Humidity;BMP_temperature;BMP_pressure;BME280_temperature;BME280_humidity;BME280_pressure;Samples;Min_cycle;Max_cycle;Signal;HPM_P1;HPM_P2
2021/12/17 00:01:00;;;;;;;4.25;2.95;;;11.00;99.90;;;;;;5021827;28;20080;-57
2021/12/17 00:03:38;;;;;;;2.95;2.65;;;11.00;99.90;;;;;;5021787;28;20119;-57
2021/12/17 00:06:15;;;;;;;3.25;2.08;;;11.00;99.90;;;;;;5022451;28;20060;-57
2021/12/17 00:08:45;;;;;;;2.95;2.03;;;11.00;99.90;;;;;;5019145;28;20503;-57
2021/12/17 00:11:12;;;;;;;2.38;2.05;;;11.00;99.90;;;;;;5020666;28;20137;-57
2021/12/17 00:13:39;;;;;;;2.40;2.08;;;11.10;99.90;;;;;;5020927;28;20041;-57
2021/12/17 00:16:14;;;;;;;2.60;2.08;;;11.10;99.90;;;;;;5021052;28;20119;-57
2021/12/17 00:19:38;;;;;;;3.47;2.33;;;11.10;99.90;;;;;;5021927;28;20140;-57
2021/12/17 00:48:23;;;;;;;2.45;1.92;;;11.10;99.90;;;;;;5021674;28;20050;-55
2021/12/17 00:49:23;;;;;;;2.88;2.13;;;11.10;99.90;;;;;;5021076;28;20146;-55
2021/12/17 00:54:23;;;;;;;2.75;1.95;;;11.10;99.90;;;;;;5021316;28;20151;-56
2021/12/17 00:56:53;;;;;;;2.05;1.80;;;11.10;99.90;;;;;;5019834;28;20459;-56
2021/12/17 00:59:19;;;;;;;2.15;1.73;;;11.10;99.90;;;;;;5015805;28;20133;-56
2021/12/17 01:01:46;;;;;;;2.55;1.65;;;11.10;99.90;;;;;;5016027;28;20080;-57
2021/12/17 01:04:13;;;;;;;2.42;2.15;;;11.10;99.90;;;;;;5020727;28;20204;-56
2021/12/17 01:06:40;;;;;;;2.83;2.03;;;11.10;99.90;;;;;;5020736;28;20053;-57
2021/12/17 01:09:10;;;;;;;2.42;2.08;;;11.10;99.90;;;;;;5019537;28;20057;-56
2021/12/17 01:11:37;;;;;;;2.30;1.90;;;11.10;99.90;;;;;;5018608;28;20152;-57
2021/12/17 01:14:04;;;;;;;3.10;2.75;;;11.00;99.90;;;;;;5019844;28;20133;-57
2021/12/17 01:16:31;;;;;;;2.92;2.10;;;11.00;99.90;;;;;;5021108;28;20156;-56
2021/12/17 01:22:14;;;;;;;3.70;1.83;;;11.00;99.90;;;;;;5016648;28;20153;-57
2021/12/17 01:35:30;;;;;;;3.35;2.13;;;11.00;99.90;;;;;;5021885;28;20172;-57
2021/12/17 01:41:21;;;;;;;2.30;1.75;;;11.00;99.90;;;;;;5009017;28;20168;-56
2021/12/17 01:43:49;;;;;;;3.03;2.13;;;11.00;99.90;;;;;;5022512;28;20042;-55
2021/12/17 01:46:21;;;;;;;3.08;2.47;;;11.00;99.90;;;;;;5022897;28;20627;-57
2021/12/17 01:59:17;;;;;;;4.47;2.70;;;10.90;99.90;;;;;;5021118;28;20084;-57
2021/12/17 01:59:43;;;;;;;3.33;2.50;;;10.90;99.90;;;;;;5014166;28;20129;-56
2021/12/17 02:02:09;;;;;;;3.60;2.80;;;10.90;99.90;;;;;;5019506;28;20141;-57
2021/12/17 02:04:36;;;;;;;3.33;2.60;;;10.90;99.90;;;;;;5022260;28;20468;-57
2021/12/17 02:07:04;;;;;;;3.28;2.65;;;10.90;99.90;;;;;;5022456;28;20441;-56
2021/12/17 02:31:48;;;;;;;5.45;3.70;;;10.90;99.90;;;;;;5017398;28;20634;-56
2021/12/17 02:34:43;;;;;;;3.92;3.10;;;10.80;99.90;;;;;;5023563;28;20050;-57
2021/12/17 02:37:06;;;;;;;5.13;3.50;;;10.90;99.90;;;;;;5023701;28;20057;-58
2021/12/17 02:42:37;;;;;;;4.95;3.80;;;10.90;99.90;;;;;;5025040;28;20125;-57
2021/12/17 02:47:56;;;;;;;4.57;3.45;;;10.90;99.90;;;;;;5021463;28;20085;-54
2021/12/17 02:50:23;;;;;;;5.13;3.35;;;10.90;99.90;;;;;;5024438;28;20053;-56
2021/12/17 02:52:50;;;;;;;4.03;3.60;;;10.90;99.90;;;;;;5025587;28;20510;-54
2021/12/17 02:55:17;;;;;;;4.68;3.85;;;10.90;99.90;;;;;;5024481;28;20132;-57
2021/12/17 02:57:44;;;;;;;5.97;4.63;;;10.80;99.90;;;;;;5022533;28;20220;-57
2021/12/17 03:00:11;;;;;;;4.65;4.03;;;10.80;99.90;;;;;;5024246;28;20128;-55
2021/12/17 03:02:39;;;;;;;6.13;3.85;;;10.80;99.90;;;;;;5025173;28;20136;-57
2021/12/17 03:05:07;;;;;;;6.82;4.35;;;10.80;99.90;;;;;;5024188;28;20145;-56
2021/12/17 03:07:37;;;;;;;5.90;5.20;;;10.80;99.90;;;;;;5025621;28;20124;-55
2021/12/17 03:10:07;;;;;;;6.57;5.32;;;10.80;99.90;;;;;;5025667;28;20057;-57
2021/12/17 03:15:21;;;;;;;6.43;5.10;;;10.80;99.90;;;;;;5025710;28;20136;-55
2021/12/17 03:23:28;;;;;;;8.13;6.00;;;10.70;99.90;;;;;;5024878;28;20100;-56
2021/12/17 03:25:56;;;;;;;6.05;5.25;;;10.70;99.90;;;;;;5023464;28;20084;-56
2021/12/17 03:28:23;;;;;;;5.85;5.25;;;10.70;99.90;;;;;;5022022;28;20142;-57
2021/12/17 03:30:49;;;;;;;7.35;5.63;;;10.70;99.90;;;;;;5022564;28;20469;-57
2021/12/17 03:33:16;;;;;;;7.50;5.97;;;10.70;99.90;;;;;;5024140;28;20145;-57
2021/12/17 03:35:43;;;;;;;7.53;5.80;;;10.70;99.90;;;;;;5025135;28;20457;-57
2021/12/17 03:38:10;;;;;;;6.72;5.82;;;10.70;99.90;;;;;;5025297;28;20088;-58
2021/12/17 03:40:39;;;;;;;8.10;6.68;;;10.70;99.90;;;;;;5025115;28;20124;-59
2021/12/17 03:43:12;;;;;;;7.47;6.15;;;10.70;99.90;;;;;;5022505;28;20200;-56
2021/12/17 03:45:40;;;;;;;8.88;6.38;;;10.60;99.90;;;;;;5025404;28;20084;-58
2021/12/17 03:48:07;;;;;;;8.20;5.50;;;10.60;99.90;;;;;;5027897;28;20092;-58
2021/12/17 03:50:36;;;;;;;7.63;6.15;;;10.50;99.90;;;;;;5028602;28;20152;-58
2021/12/17 03:53:04;;;;;;;7.43;5.65;;;10.50;99.90;;;;;;5028099;28;20140;-58
2021/12/17 03:55:31;;;;;;;9.80;6.85;;;10.50;99.90;;;;;;5028122;28;20134;-57
2021/12/17 03:58:01;;;;;;;9.73;6.75;;;10.40;99.90;;;;;;5026331;28;20093;-57
2021/12/17 04:00:29;;;;;;;9.45;7.47;;;10.40;99.90;;;;;;5027634;28;20088;-57
2021/12/17 04:02:55;;;;;;;9.10;6.78;;;10.40;99.90;;;;;;5028095;28;20054;-58
2021/12/17 04:05:22;;;;;;;9.80;6.78;;;10.40;99.90;;;;;;5027115;28;20045;-57
2021/12/17 04:07:49;;;;;;;8.27;6.82;;;10.40;99.90;;;;;;5026554;28;20132;-58
2021/12/17 04:10:18;;;;;;;8.35;6.95;;;10.30;99.90;;;;;;5028097;28;20509;-56
2021/12/17 04:15:15;;;;;;;9.63;7.40;;;10.10;99.90;;;;;;5028040;28;20073;-57
2021/12/17 04:17:46;;;;;;;9.10;7.28;;;10.10;99.90;;;;;;5028050;28;20073;-58
2021/12/17 04:20:13;;;;;;;8.02;7.00;;;10.00;99.90;;;;;;5027653;28;20429;-58
2021/12/17 04:22:39;;;;;;;8.18;6.57;;;10.00;99.90;;;;;;5027526;28;20120;-58
2021/12/17 04:25:06;;;;;;;8.65;6.63;;;10.10;99.90;;;;;;5027943;28;20574;-58
2021/12/17 04:27:33;;;;;;;9.27;6.75;;;10.10;99.90;;;;;;5025700;28;20091;-57
2021/12/17 04:30:00;;;;;;;8.25;6.05;;;10.20;99.90;;;;;;5027825;28;20139;-56
2021/12/17 04:32:27;;;;;;;7.50;6.50;;;10.10;99.90;;;;;;5027111;28;20100;-57
2021/12/17 04:34:53;;;;;;;8.75;6.93;;;10.20;99.90;;;;;;5027492;28;20620;-58
2021/12/17 04:37:20;;;;;;;8.15;6.28;;;10.10;99.90;;;;;;5026272;28;20057;-57
2021/12/17 04:39:47;;;;;;;9.32;7.15;;;10.20;99.90;;;;;;5027732;28;20128;-57
2021/12/17 04:42:30;;;;;;;8.15;6.50;;;10.20;99.90;;;;;;5025388;28;20124;-58
2021/12/17 04:44:58;;;;;;;9.25;6.65;;;10.20;99.90;;;;;;5026192;28;20544;-59
2021/12/17 04:58:27;;;;;;;6.68;5.88;;;10.30;99.90;;;;;;5006257;28;20237;-58
2021/12/17 05:01:00;;;;;;;7.45;5.63;;;10.30;99.90;;;;;;5011959;28;20053;-57
2021/12/17 05:03:27;;;;;;;7.70;5.80;;;10.30;99.90;;;;;;5025929;28;20065;-58
2021/12/17 05:05:54;;;;;;;7.50;5.90;;;10.30;99.90;;;;;;5027206;28;20049;-58
2021/12/17 05:08:23;;;;;;;8.02;6.05;;;10.40;99.90;;;;;;5026670;28;20104;-58
2021/12/17 05:21:18;;;;;;;8.73;6.60;;;10.30;99.90;;;;;;5026683;28;20057;-57
2021/12/17 05:23:45;;;;;;;7.00;6.28;;;10.30;99.90;;;;;;5026618;28;20045;-57
2021/12/17 05:26:16;;;;;;;7.13;6.30;;;10.20;99.90;;;;;;5026343;28;20556;-56
2021/12/17 05:28:49;;;;;;;11.07;6.97;;;10.20;99.90;;;;;;5026308;28;20092;-57
2021/12/17 05:31:18;;;;;;;9.65;7.28;;;10.20;99.90;;;;;;5026882;28;20404;-57
2021/12/17 05:33:45;;;;;;;9.10;6.25;;;10.20;99.90;;;;;;5029217;28;20096;-57
2021/12/17 05:36:12;;;;;;;6.88;6.07;;;10.30;99.90;;;;;;5028318;28;20091;-58
2021/12/17 05:38:38;;;;;;;8.30;6.20;;;10.30;99.90;;;;;;5028048;28;20132;-57
2021/12/17 05:41:05;;;;;;;7.95;6.55;;;10.30;99.90;;;;;;5027634;28;20129;-54
2021/12/17 05:43:36;;;;;;;9.07;6.35;;;10.20;99.90;;;;;;5026498;28;20571;-58
2021/12/17 05:48:33;;;;;;;8.50;6.53;;;10.20;99.90;;;;;;5016761;28;20169;-58
2021/12/17 05:51:02;;;;;;;9.10;7.00;;;10.20;99.90;;;;;;5004766;28;20530;-57
2021/12/17 05:53:29;;;;;;;9.73;7.20;;;10.20;99.90;;;;;;5004444;28;20137;-57
2021/12/17 05:55:56;;;;;;;8.77;7.00;;;10.20;99.90;;;;;;5006139;28;20962;-58
2021/12/17 05:58:25;;;;;;;7.93;6.78;;;10.20;99.90;;;;;;5013438;28;20131;-56
2021/12/17 06:00:52;;;;;;;7.25;6.50;;;10.20;99.90;;;;;;5015403;28;20053;-57
2021/12/17 06:03:19;;;;;;;9.48;6.78;;;10.20;99.90;;;;;;5018956;28;20049;-57
2021/12/17 06:05:46;;;;;;;8.77;7.05;;;10.20;99.90;;;;;;5020564;28;20166;-57
2021/12/17 06:08:12;;;;;;;9.23;7.47;;;10.10;99.90;;;;;;5019442;28;20060;-57
2021/12/17 06:10:39;;;;;;;7.80;7.00;;;10.10;99.90;;;;;;5019041;28;20580;-56
2021/12/17 06:13:06;;;;;;;9.68;7.72;;;10.10;99.90;;;;;;5018205;28;20168;-57
2021/12/17 06:15:33;;;;;;;8.07;7.25;;;10.10;99.90;;;;;;5002858;28;20684;-55
2021/12/17 06:17:59;;;;;;;10.05;7.60;;;10.00;99.90;;;;;;5014772;28;20148;-58
2021/12/17 06:20:26;;;;;;;10.20;7.50;;;10.00;99.90;;;;;;5011135;28;20057;-57
2021/12/17 06:22:54;;;;;;;8.57;6.43;;;10.10;99.90;;;;;;5019544;28;20239;-58
2021/12/17 06:25:20;;;;;;;8.25;6.88;;;10.10;99.90;;;;;;5019696;28;20081;-54
2021/12/17 06:27:47;;;;;;;8.70;6.75;;;10.10;99.90;;;;;;5016117;28;20108;-57
2021/12/17 06:30:16;;;;;;;8.32;6.18;;;10.10;99.90;;;;;;5018320;28;20051;-57
2021/12/17 06:32:42;;;;;;;10.70;7.28;;;10.10;99.90;;;;;;5017050;28;20084;-56
2021/12/17 06:35:09;;;;;;;10.23;8.00;;;10.00;99.90;;;;;;5018906;28;20160;-56
2021/12/17 06:37:37;;;;;;;8.75;6.30;;;10.00;99.90;;;;;;5015936;28;20057;-55
2021/12/17 06:40:05;;;;;;;10.27;7.90;;;10.00;99.90;;;;;;5008609;28;20057;-56
2021/12/17 06:42:32;;;;;;;10.52;8.13;;;10.00;99.90;;;;;;5011820;28;20272;-56
2021/12/17 06:45:03;;;;;;;10.85;7.47;;;10.00;99.90;;;;;;5011491;28;20077;-57
2021/12/17 06:47:33;;;;;;;10.40;6.90;;;10.00;99.90;;;;;;5012945;28;20513;-57
2021/12/17 06:54:38;;;;;;;8.73;6.90;;;10.00;99.90;;;;;;5015868;28;20076;-56
2021/12/17 06:56:14;;;;;;;8.82;7.30;;;10.00;99.90;;;;;;5003514;28;20132;-57
2021/12/17 07:01:07;;;;;;;8.38;6.50;;;9.90;99.90;;;;;;5005107;28;20096;-56
2021/12/17 07:17:10;;;;;;;9.90;7.25;;;10.00;99.90;;;;;;5013436;28;20136;-58
2021/12/17 07:17:39;;;;;;;8.63;5.95;;;9.90;99.90;;;;;;5013915;28;20053;-57
2021/12/17 07:28:07;;;;;;;7.55;6.65;;;9.90;99.90;;;;;;5020086;28;20087;-58
2021/12/17 07:28:29;;;;;;;7.90;6.88;;;9.90;99.90;;;;;;5019066;28;20421;-56
2021/12/17 07:33:45;;;;;;;8.48;7.43;;;9.80;99.90;;;;;;5008804;28;20149;-57
2021/12/17 07:36:15;;;;;;;9.77;7.90;;;9.80;99.90;;;;;;5013789;28;20041;-58
2021/12/17 07:38:49;;;;;;;9.63;7.72;;;9.70;99.90;;;;;;5009644;28;20657;-53
2021/12/17 07:41:17;;;;;;;9.48;7.82;;;9.70;99.90;;;;;;5009040;28;20135;-56
2021/12/17 07:43:55;;;;;;;8.73;7.35;;;9.80;99.90;;;;;;5009785;28;20089;-58
2021/12/17 07:46:22;;;;;;;10.88;7.82;;;9.80;99.90;;;;;;5008832;28;20157;-56
2021/12/17 07:48:50;;;;;;;12.27;8.38;;;9.70;99.90;;;;;;5014525;28;20538;-57
2021/12/17 07:51:19;;;;;;;10.07;7.38;;;9.70;99.90;;;;;;5013552;28;20058;-52
2021/12/17 07:53:46;;;;;;;9.80;7.28;;;9.80;99.90;;;;;;5013390;28;20049;-56
2021/12/17 07:56:14;;;;;;;8.63;7.30;;;9.80;99.90;;;;;;5018163;28;20717;-57
2021/12/17 07:58:41;;;;;;;9.80;7.40;;;9.80;99.90;;;;;;5018973;28;20076;-58
2021/12/17 08:01:10;;;;;;;7.60;6.70;;;9.70;99.90;;;;;;5012905;28;20084;-57
2021/12/17 08:03:38;;;;;;;9.02;7.22;;;9.70;99.90;;;;;;5013258;28;20146;-56
2021/12/17 08:06:05;;;;;;;8.60;6.88;;;9.70;99.90;;;;;;5015425;28;20066;-58
2021/12/17 08:08:32;;;;;;;9.68;7.95;;;9.70;99.90;;;;;;5017156;28;20759;-56
2021/12/17 08:10:59;;;;;;;9.75;7.15;;;9.70;99.90;;;;;;5015920;28;20136;-58
2021/12/17 08:13:29;;;;;;;9.25;6.85;;;9.70;99.90;;;;;;5017876;28;20137;-57
2021/12/17 08:18:48;;;;;;;10.02;7.45;;;9.60;99.90;;;;;;5013060;28;20388;-57
2021/12/17 08:24:16;;;;;;;10.30;6.93;;;9.60;99.90;;;;;;5011631;28;20197;-54
2021/12/17 08:26:57;;;;;;;9.07;6.95;;;9.70;99.90;;;;;;5018550;28;20486;-57
2021/12/17 08:31:54;;;;;;;9.20;7.35;;;9.70;99.90;;;;;;5021154;28;20361;-57
2021/12/17 08:34:21;;;;;;;9.48;8.30;;;9.60;99.90;;;;;;5009497;28;20780;-57
2021/12/17 08:36:48;;;;;;;13.63;8.05;;;9.60;99.90;;;;;;5006607;28;20170;-57
2021/12/17 08:39:14;;;;;;;11.00;7.85;;;9.50;99.90;;;;;;5020593;28;20138;-57
2021/12/17 08:41:41;;;;;;;9.13;7.65;;;9.50;99.90;;;;;;5015714;28;20049;-57
2021/12/17 08:44:08;;;;;;;11.07;9.10;;;9.50;99.90;;;;;;5018326;28;20073;-58
2021/12/17 08:46:35;;;;;;;14.73;8.93;;;9.50;99.90;;;;;;5009575;28;20128;-57
2021/12/17 08:49:03;;;;;;;9.70;8.70;;;9.40;99.90;;;;;;5011158;28;20156;-56
2021/12/17 08:51:30;;;;;;;11.38;8.55;;;9.50;99.90;;;;;;5020347;28;20144;-57
2021/12/17 08:53:57;;;;;;;10.25;8.35;;;9.50;99.90;;;;;;5016585;28;20104;-57
2021/12/17 08:56:31;;;;;;;12.40;9.25;;;9.60;99.90;;;;;;5012661;28;20132;-53
2021/12/17 08:59:01;;;;;;;12.57;9.90;;;9.50;99.90;;;;;;5014957;28;20050;-56
2021/12/17 09:01:28;;;;;;;12.35;9.73;;;9.60;99.90;;;;;;5016970;28;20251;-58
2021/12/17 09:03:54;;;;;;;12.10;9.60;;;9.50;99.90;;;;;;5017512;28;20848;-56
2021/12/17 09:06:26;;;;;;;11.93;9.18;;;9.50;99.90;;;;;;5016513;28;20050;-60
2021/12/17 09:08:56;;;;;;;10.65;8.32;;;9.50;99.90;;;;;;5004663;28;20510;-57
2021/12/17 09:11:26;;;;;;;10.18;8.25;;;9.50;99.90;;;;;;5015883;28;20046;-56
2021/12/17 09:13:55;;;;;;;11.05;7.68;;;9.60;99.90;;;;;;5020051;28;20119;-57
2021/12/17 09:16:22;;;;;;;11.20;9.27;;;9.60;99.90;;;;;;5016992;28;20141;-58
2021/12/17 09:18:49;;;;;;;13.00;10.25;;;9.60;99.90;;;;;;5019298;28;20148;-57
2021/12/17 09:21:16;;;;;;;11.52;8.50;;;9.50;99.90;;;;;;5009581;28;20058;-56
2021/12/17 09:23:43;;;;;;;12.00;8.88;;;9.50;99.90;;;;;;5009702;28;20132;-57
2021/12/17 09:26:11;;;;;;;12.70;10.43;;;9.50;99.90;;;;;;5017604;28;20069;-57
2021/12/17 09:28:38;;;;;;;13.85;10.07;;;9.50;99.90;;;;;;5009077;28;20670;-57
2021/12/17 09:31:05;;;;;;;14.10;10.50;;;9.40;99.90;;;;;;5009036;28;20140;-58
2021/12/17 09:33:33;;;;;;;15.90;12.57;;;9.30;99.90;;;;;;5017100;28;20136;-56
2021/12/17 09:36:00;;;;;;;17.33;12.40;;;9.20;99.90;;;;;;5014319;28;20141;-57
2021/12/17 09:38:28;;;;;;;15.13;11.30;;;9.00;99.90;;;;;;5018068;28;20183;-57
2021/12/17 09:40:55;;;;;;;16.08;11.75;;;8.90;99.90;;;;;;5015676;28;20816;-57
2021/12/17 09:43:25;;;;;;;13.00;9.73;;;8.80;99.90;;;;;;5016292;28;20140;-57
2021/12/17 09:45:52;;;;;;;17.42;11.27;;;8.70;99.90;;;;;;5011130;28;20127;-56
2021/12/17 09:48:19;;;;;;;12.90;8.65;;;8.70;99.90;;;;;;5014800;28;20061;-58
2021/12/17 09:50:46;;;;;;;10.93;7.50;;;8.70;99.90;;;;;;5017033;28;20079;-55
2021/12/17 09:53:12;;;;;;;10.90;7.13;;;8.70;99.90;;;;;;5010557;28;20088;-57
2021/12/17 09:55:39;;;;;;;11.52;8.02;;;8.80;99.90;;;;;;5006580;28;20497;-56
2021/12/17 09:58:06;;;;;;;8.43;6.15;;;8.80;99.90;;;;;;5013819;28;20057;-58
2021/12/17 10:00:33;;;;;;;8.88;5.88;;;8.70;99.90;;;;;;5016137;28;20132;-56
2021/12/17 10:03:00;;;;;;;7.65;4.72;;;8.70;99.90;;;;;;5014465;28;20140;-56
2021/12/17 10:05:31;;;;;;;6.95;4.68;;;8.80;99.90;;;;;;5007941;28;20473;-55
2021/12/17 10:08:00;;;;;;;8.10;5.00;;;8.80;99.90;;;;;;5010070;28;20092;-57
2021/12/17 10:10:36;;;;;;;6.47;4.47;;;8.80;99.90;;;;;;5015855;28;20077;-57
2021/12/17 10:13:29;;;;;;;7.70;5.18;;;8.80;99.90;;;;;;5013533;28;20127;-53
2021/12/17 10:16:01;;;;;;;7.85;5.45;;;8.80;99.90;;;;;;5015078;28;20049;-57
2021/12/17 10:18:31;;;;;;;6.38;5.15;;;8.80;99.90;;;;;;5001322;28;20061;-55
2021/12/17 10:20:59;;;;;;;7.00;4.25;;;8.80;99.90;;;;;;5019668;28;20119;-57
2021/12/17 10:23:27;;;;;;;7.22;4.88;;;8.90;99.90;;;;;;5020103;28;20057;-57
2021/12/17 10:25:54;;;;;;;10.57;6.65;;;8.90;99.90;;;;;;5020381;28;20590;-57
2021/12/17 10:28:21;;;;;;;9.23;6.45;;;8.80;99.90;;;;;;5018708;28;20089;-56
2021/12/17 10:30:49;;;;;;;9.57;6.57;;;8.80;99.90;;;;;;5017363;28;20140;-57
2021/12/17 10:33:20;;;;;;;8.75;6.78;;;8.70;99.90;;;;;;5018181;28;20049;-56
2021/12/17 10:35:51;;;;;;;6.75;5.70;;;8.80;99.90;;;;;;5019881;28;20098;-56
2021/12/17 10:38:22;;;;;;;7.90;5.70;;;8.90;99.90;;;;;;5020011;28;20404;-56
2021/12/17 10:41:06;;;;;;;8.32;5.85;;;8.90;99.90;;;;;;5010080;28;20042;-57
2021/12/17 10:43:41;;;;;;;10.52;6.93;;;8.90;99.90;;;;;;5012319;28;20056;-57
2021/12/17 10:48:54;;;;;;;8.32;5.97;;;8.90;99.90;;;;;;5009101;28;20150;-57
2021/12/17 10:51:42;;;;;;;8.85;5.78;;;8.90;99.90;;;;;;5014303;28;20053;-57
2021/12/17 10:54:11;;;;;;;8.75;6.20;;;9.00;99.90;;;;;;5012534;28;20080;-55
2021/12/17 10:56:39;;;;;;;7.65;5.50;;;8.90;99.90;;;;;;5020276;28;20175;-56
2021/12/17 10:59:07;;;;;;;6.93;5.22;;;9.00;99.90;;;;;;5023067;28;20080;-57
2021/12/17 11:01:45;;;;;;;7.20;5.47;;;9.10;99.90;;;;;;5018760;28;20103;-56
2021/12/17 11:04:20;;;;;;;6.80;5.20;;;9.10;99.90;;;;;;5021982;28;20137;-57
2021/12/17 11:06:48;;;;;;;7.25;5.85;;;9.10;99.90;;;;;;5023335;28;20188;-56
2021/12/17 11:09:47;;;;;;;8.65;5.80;;;9.10;99.90;;;;;;5021171;28;20149;-56
2021/12/17 11:12:20;;;;;;;6.88;5.63;;;9.10;99.90;;;;;;5012197;28;20128;-56
2021/12/17 11:14:47;;;;;;;6.00;4.43;;;9.20;99.90;;;;;;5007193;28;20680;-57
2021/12/17 11:17:14;;;;;;;7.03;5.25;;;9.20;99.90;;;;;;5008515;28;20132;-56
2021/12/17 11:20:10;;;;;;;6.82;5.93;;;9.20;99.90;;;;;;5015847;28;20775;-54
2021/12/17 11:22:38;;;;;;;8.13;5.93;;;9.20;99.90;;;;;;5022361;28;20588;-56
2021/12/17 11:25:05;;;;;;;10.50;6.18;;;9.10;99.90;;;;;;5023033;28;20149;-56
2021/12/17 11:27:32;;;;;;;6.20;5.57;;;9.10;99.90;;;;;;5013507;28;20174;-56
2021/12/17 11:30:01;;;;;;;6.65;5.68;;;9.10;99.90;;;;;;5016401;28;20410;-57
2021/12/17 11:32:28;;;;;;;6.38;4.82;;;9.20;99.90;;;;;;5022855;28;20135;-54
2021/12/17 11:34:59;;;;;;;7.50;5.10;;;9.20;99.90;;;;;;5013351;28;20501;-56
2021/12/17 11:37:27;;;;;;;8.15;5.03;;;9.20;99.90;;;;;;5007423;28;20141;-57
2021/12/17 11:39:59;;;;;;;6.50;5.55;;;9.30;99.90;;;;;;5011528;28;20053;-56
2021/12/17 11:42:35;;;;;;;6.93;5.68;;;9.30;99.90;;;;;;5010947;28;20169;-55
2021/12/17 11:47:49;;;;;;;7.47;4.78;;;9.20;99.90;;;;;;5017003;28;20167;-57
2021/12/17 11:50:16;;;;;;;7.30;5.05;;;9.30;99.90;;;;;;5018338;28;20132;-55
2021/12/17 11:52:44;;;;;;;7.80;5.18;;;9.30;99.90;;;;;;5009959;28;20058;-56
2021/12/17 11:55:20;;;;;;;5.53;4.93;;;9.30;99.90;;;;;;5022261;28;20135;-57
2021/12/17 11:57:53;;;;;;;6.72;4.68;;;9.30;99.90;;;;;;5014134;28;20868;-57
2021/12/17 12:00:25;;;;;;;7.55;5.88;;;9.30;99.90;;;;;;5017806;28;20788;-52
2021/12/17 12:02:55;;;;;;;6.60;4.35;;;9.20;99.90;;;;;;5009149;28;20134;-57
2021/12/17 12:05:43;;;;;;;6.30;4.82;;;9.20;99.90;;;;;;5022165;28;20187;-54
2021/12/17 12:08:28;;;;;;;5.53;4.53;;;9.30;99.90;;;;;;5012170;28;20054;-56
2021/12/17 12:11:11;;;;;;;7.70;5.90;;;9.30;99.90;;;;;;5007814;28;20050;-58
2021/12/17 12:13:43;;;;;;;7.10;5.20;;;9.20;99.90;;;;;;5020077;28;20089;-57
2021/12/17 12:16:11;;;;;;;7.25;4.88;;;9.20;99.90;;;;;;5022320;28;20136;-55
2021/12/17 12:18:40;;;;;;;6.80;5.50;;;9.20;99.90;;;;;;5022121;28;20398;-56
2021/12/17 12:21:07;;;;;;;6.85;4.75;;;9.20;99.90;;;;;;5021737;28;20057;-56
2021/12/17 12:23:41;;;;;;;6.10;4.68;;;9.20;99.90;;;;;;5021618;28;20601;-57
2021/12/17 12:26:18;;;;;;;6.05;4.80;;;9.20;99.90;;;;;;5009611;28;20775;-57
2021/12/17 12:28:45;;;;;;;6.68;5.05;;;9.30;99.90;;;;;;5020301;28;20571;-57
2021/12/17 12:31:32;;;;;;;6.72;5.03;;;9.30;99.90;;;;;;5003738;28;20417;-57
2021/12/17 12:36:44;;;;;;;6.43;4.70;;;9.30;99.90;;;;;;5003860;28;20049;-58
2021/12/17 12:39:42;;;;;;;6.55;4.97;;;9.30;99.90;;;;;;5021708;28;20087;-57
2021/12/17 12:42:25;;;;;;;7.03;4.78;;;9.30;99.90;;;;;;5004889;28;20073;-57
2021/12/17 12:44:52;;;;;;;5.07;4.30;;;9.30;99.90;;;;;;5021205;28;20103;-56
2021/12/17 12:47:25;;;;;;;6.72;3.70;;;9.30;99.90;;;;;;5020178;28;20200;-58
2021/12/17 12:50:12;;;;;;;4.95;4.20;;;9.40;99.90;;;;;;5013631;28;20046;-58
2021/12/17 12:52:45;;;;;;;5.30;4.13;;;9.40;99.90;;;;;;5008777;28;20057;-57
2021/12/17 12:55:25;;;;;;;5.05;3.63;;;9.40;99.90;;;;;;5001784;28;20046;-58
2021/12/17 12:57:52;;;;;;;5.35;4.18;;;9.50;99.90;;;;;;5009557;28;20088;-57
2021/12/17 13:00:33;;;;;;;4.65;4.03;;;9.50;99.90;;;;;;5018061;28;20867;-58
2021/12/17 13:03:05;;;;;;;6.57;5.28;;;9.50;99.90;;;;;;5009214;28;20415;-58
2021/12/17 13:05:33;;;;;;;5.45;4.28;;;9.50;99.90;;;;;;4994163;28;20103;-58
2021/12/17 13:08:01;;;;;;;6.90;4.97;;;9.40;99.90;;;;;;5011527;28;20045;-57
2021/12/17 13:10:28;;;;;;;6.47;4.68;;;9.40;99.90;;;;;;5018332;28;20145;-55
2021/12/17 13:13:00;;;;;;;6.40;4.93;;;9.40;99.90;;;;;;5018005;28;20211;-56
2021/12/17 13:21:01;;;;;;;5.32;4.40;;;9.40;99.90;;;;;;5020769;28;20049;-56
2021/12/17 13:23:30;;;;;;;4.82;4.40;;;9.40;99.90;;;;;;5019995;28;20627;-55
2021/12/17 13:26:04;;;;;;;5.65;4.35;;;9.40;99.90;;;;;;5020146;28;20053;-55
2021/12/17 13:28:51;;;;;;;6.05;4.32;;;9.40;99.90;;;;;;5019147;28;20205;-57
2021/12/17 13:31:51;;;;;;;4.57;3.92;;;9.40;99.90;;;;;;5020620;28;20065;-54
2021/12/17 13:34:25;;;;;;;5.90;5.03;;;9.40;99.90;;;;;;4995788;28;20103;-55
2021/12/17 13:36:55;;;;;;;5.80;5.20;;;9.30;99.90;;;;;;5019925;28;20424;-57
2021/12/17 13:39:22;;;;;;;5.07;4.30;;;9.30;99.90;;;;;;5020417;28;20136;-56
2021/12/17 13:41:49;;;;;;;4.93;4.38;;;9.30;99.90;;;;;;5018296;28;20108;-57
2021/12/17 13:44:35;;;;;;;4.82;4.25;;;9.30;99.90;;;;;;5020386;28;20057;-57
2021/12/17 13:47:07;;;;;;;4.55;3.50;;;9.30;99.90;;;;;;5019583;28;20081;-56
2021/12/17 13:49:34;;;;;;;3.50;2.90;;;9.40;99.90;;;;;;5020220;28;20556;-55
2021/12/17 13:52:00;;;;;;;3.40;3.05;;;9.50;99.90;;;;;;5018177;28;20049;-58
2021/12/17 13:54:28;;;;;;;3.95;3.55;;;9.50;99.90;;;;;;5002386;28;20516;-55
2021/12/17 13:56:58;;;;;;;4.22;3.22;;;9.60;99.90;;;;;;5016685;28;20111;-57
2021/12/17 13:59:35;;;;;;;4.13;3.15;;;9.60;99.90;;;;;;5020049;28;20094;-53
2021/12/17 14:02:14;;;;;;;4.10;3.30;;;9.50;99.90;;;;;;5019893;28;20239;-58
2021/12/17 14:04:42;;;;;;;4.85;3.65;;;9.50;99.90;;;;;;5019645;28;20064;-53
2021/12/17 14:07:09;;;;;;;4.35;3.53;;;9.40;99.90;;;;;;5015449;28;20160;-56
2021/12/17 14:09:36;;;;;;;5.93;3.75;;;9.40;99.90;;;;;;5013088;28;20061;-56
2021/12/17 14:12:08;;;;;;;3.80;3.13;;;9.30;99.90;;;;;;5009209;28;20402;-56
2021/12/17 14:15:05;;;;;;;4.43;3.20;;;9.30;99.90;;;;;;5017171;28;20111;-57
2021/12/17 14:17:36;;;;;;;4.13;3.40;;;9.30;99.90;;;;;;5016593;28;20567;-57
2021/12/17 14:20:06;;;;;;;3.92;3.20;;;9.30;99.90;;;;;;5010379;28;20041;-56
2021/12/17 14:22:35;;;;;;;4.03;3.60;;;9.40;99.90;;;;;;5001819;28;20080;-57
2021/12/17 14:25:25;;;;;;;4.18;3.50;;;9.40;99.90;;;;;;5017135;28;20084;-56
2021/12/17 14:27:52;;;;;;;3.00;2.70;;;9.40;99.90;;;;;;5011766;28;20140;-56
2021/12/17 14:30:33;;;;;;;3.35;2.80;;;9.40;99.90;;;;;;5013821;28;20132;-56
2021/12/17 14:33:12;;;;;;;3.90;3.50;;;9.50;99.90;;;;;;5009535;28;20132;-57
2021/12/17 14:36:21;;;;;;;3.42;2.67;;;9.50;99.90;;;;;;5019505;28;20623;-56
2021/12/17 14:39:10;;;;;;;2.85;2.20;;;9.50;99.90;;;;;;5001257;28;20145;-57
2021/12/17 14:41:51;;;;;;;3.30;2.67;;;9.50;99.90;;;;;;5017565;28;20435;-56
2021/12/17 14:44:36;;;;;;;3.63;3.08;;;9.50;99.90;;;;;;5012202;28;20061;-56
2021/12/17 14:47:37;;;;;;;3.50;2.75;;;9.50;99.90;;;;;;5013497;28;20050;-58
2021/12/17 15:01:18;;;;;;;3.78;2.97;;;9.50;99.90;;;;;;5011955;28;20045;-56
2021/12/17 15:03:47;;;;;;;3.17;2.38;;;9.50;99.90;;;;;;5011714;28;20555;-54
2021/12/17 15:06:15;;;;;;;3.03;2.55;;;9.50;99.90;;;;;;5009878;28;20049;-51
2021/12/17 15:08:43;;;;;;;4.70;2.92;;;9.50;99.90;;;;;;5016965;28;20491;-54
2021/12/17 15:11:24;;;;;;;4.75;3.38;;;9.50;99.90;;;;;;5016732;28;20739;-54
2021/12/17 15:13:52;;;;;;;3.80;3.28;;;9.50;99.90;;;;;;5014912;28;20123;-57
2021/12/17 15:16:19;;;;;;;3.60;3.08;;;9.50;99.90;;;;;;5015452;28;20160;-52
2021/12/17 15:18:46;;;;;;;4.15;3.17;;;9.50;99.90;;;;;;5009957;28;20081;-56
2021/12/17 15:21:13;;;;;;;3.97;3.58;;;9.50;99.90;;;;;;5008278;28;20073;-56
2021/12/17 15:23:40;;;;;;;4.30;3.40;;;9.50;99.90;;;;;;5008462;28;20188;-55
2021/12/17 15:26:06;;;;;;;3.63;3.30;;;9.50;99.90;;;;;;5013819;28;20148;-55
2021/12/17 15:28:33;;;;;;;3.97;3.10;;;9.50;99.90;;;;;;5008216;28;20042;-57
2021/12/17 15:31:02;;;;;;;3.83;3.13;;;9.50;99.90;;;;;;5007058;28;20152;-56
2021/12/17 15:33:29;;;;;;;3.78;3.25;;;9.40;99.90;;;;;;5012574;28;20194;-55
2021/12/17 15:35:56;;;;;;;4.45;3.85;;;9.40;99.90;;;;;;5010410;28;20153;-54
2021/12/17 15:38:23;;;;;;;4.10;3.58;;;9.40;99.90;;;;;;5009570;28;20153;-54
2021/12/17 15:40:50;;;;;;;4.00;3.50;;;9.40;99.90;;;;;;5008350;28;20050;-50
2021/12/17 15:43:18;;;;;;;4.10;3.55;;;9.40;99.90;;;;;;5010255;28;20053;-56
2021/12/17 15:45:47;;;;;;;3.80;3.40;;;9.40;99.90;;;;;;5007227;28;20191;-54
2021/12/17 15:48:15;;;;;;;4.40;3.72;;;9.30;99.90;;;;;;5022143;28;20069;-57
2021/12/17 15:51:03;;;;;;;4.22;3.60;;;9.30;99.90;;;;;;5008178;28;20082;-56
2021/12/17 15:53:31;;;;;;;3.88;3.42;;;9.30;99.90;;;;;;5006048;28;20049;-57
2021/12/17 15:55:58;;;;;;;5.30;4.30;;;9.30;99.90;;;;;;5006284;28;20048;-56
2021/12/17 15:58:25;;;;;;;3.92;3.45;;;9.30;99.90;;;;;;5011974;28;20104;-56
2021/12/17 16:00:52;;;;;;;4.20;3.78;;;9.30;99.90;;;;;;5012464;28;20500;-54
2021/12/17 16:03:26;;;;;;;4.53;3.83;;;9.30;99.90;;;;;;5020905;28;20123;-56